createdAt,value
2023-05-21T00:01:45.648Z,4.95
2023-05-21T00:04:13.226Z,5.43
2023-05-21T00:06:40.265Z,2.80
2023-05-21T00:09:08.012Z,5.22
2023-05-21T00:11:35.124Z,4.25
2023-05-21T00:14:02.092Z,3.33
2023-05-21T00:16:29.145Z,3.17
2023-05-21T00:18:58.164Z,4.80
2023-05-21T00:21:26.504Z,4.47
2023-05-21T00:23:56.867Z,3.35
2023-05-21T00:26:24.239Z,10.60
2023-05-21T00:28:54.544Z,2.25
2023-05-21T00:31:21.789Z,2.85
2023-05-21T00:33:48.770Z,7.63
2023-05-21T00:36:15.753Z,3.35
2023-05-21T00:38:44.112Z,5.82
2023-05-21T00:41:11.328Z,3.97
2023-05-21T00:43:42.058Z,3.55
2023-05-21T00:46:13.936Z,5.35
2023-05-21T00:48:40.927Z,3.65
2023-05-21T00:51:07.871Z,4.03
2023-05-21T00:53:35.615Z,2.97
2023-05-21T00:56:03.576Z,8.63
2023-05-21T00:58:33.439Z,4.57
2023-05-21T01:01:03.949Z,4.07
2023-05-21T01:03:38.756Z,5.65
2023-05-21T01:06:08.657Z,4.05
2023-05-21T01:08:40.782Z,8.75
2023-05-21T01:11:09.814Z,4.75
2023-05-21T01:13:41.338Z,4.20
2023-05-21T01:16:09.416Z,3.13
2023-05-21T01:18:37.770Z,6.93
2023-05-21T01:21:07.429Z,5.15
2023-05-21T01:23:34.835Z,5.72
2023-05-21T01:26:01.771Z,4.00
2023-05-21T01:28:29.829Z,5.45
2023-05-21T01:31:04.176Z,2.85
2023-05-21T01:33:43.395Z,4.50
2023-05-21T01:36:21.776Z,5.15
2023-05-21T01:39:29.992Z,5.28
2023-05-21T01:41:57.801Z,3.40
2023-05-21T01:44:26.476Z,6.03
2023-05-21T01:46:55.810Z,8.93
2023-05-21T01:49:23.451Z,4.85
2023-05-21T01:51:50.764Z,5.40
2023-05-21T01:54:17.693Z,5.32
2023-05-21T01:56:44.667Z,4.15
2023-05-21T01:59:11.671Z,9.13
2023-05-21T02:01:38.679Z,5.15
2023-05-21T02:04:07.179Z,7.47
2023-05-21T02:06:35.905Z,7.10
2023-05-21T02:09:03.842Z,5.22
2023-05-21T02:11:31.278Z,5.82
2023-05-21T02:13:58.439Z,4.90
2023-05-21T02:16:26.156Z,10.85
2023-05-21T02:18:57.413Z,9.90
2023-05-21T02:21:24.692Z,5.82
2023-05-21T02:23:51.662Z,7.32
2023-05-21T02:26:18.828Z,6.47
2023-05-21T02:28:45.938Z,6.88
2023-05-21T02:31:12.932Z,6.93
2023-05-21T02:33:43.020Z,5.75
2023-05-21T02:36:15.414Z,8.27
2023-05-21T02:38:43.798Z,7.47
2023-05-21T02:41:12.030Z,5.43
2023-05-21T02:43:39.801Z,6.93
2023-05-21T02:46:07.888Z,7.10
2023-05-21T02:48:35.746Z,7.88
2023-05-21T02:51:04.426Z,5.45
2023-05-21T02:53:31.729Z,14.20
2023-05-21T02:55:58.686Z,7.53
2023-05-21T02:58:25.736Z,6.22
2023-05-21T03:00:53.705Z,8.88
2023-05-21T03:03:20.977Z,9.30
2023-05-21T03:05:48.631Z,5.82
2023-05-21T03:08:15.820Z,9.68
2023-05-21T03:10:43.172Z,6.00
2023-05-21T03:13:10.215Z,6.68
2023-05-21T03:15:39.305Z,6.40
2023-05-21T03:18:06.649Z,8.77
2023-05-21T03:20:33.821Z,7.03
2023-05-21T03:23:04.337Z,9.48
2023-05-21T03:25:31.652Z,5.28
2023-05-21T03:27:58.783Z,8.40
2023-05-21T03:30:52.369Z,7.25
2023-05-21T03:33:44.501Z,6.25
2023-05-21T03:36:21.300Z,7.35
2023-05-21T03:38:48.292Z,7.60
2023-05-21T03:41:15.606Z,7.97
2023-05-21T03:43:46.493Z,7.00
2023-05-21T03:46:13.535Z,8.30
2023-05-21T03:48:43.356Z,11.80
2023-05-21T03:51:13.308Z,7.45
2023-05-21T03:53:40.382Z,6.65
2023-05-21T03:56:07.740Z,5.40
2023-05-21T03:58:34.967Z,6.65
2023-05-21T04:01:02.843Z,7.75
2023-05-21T04:03:33.188Z,9.20
2023-05-21T04:06:00.627Z,8.70
2023-05-21T04:08:27.957Z,7.00
2023-05-21T04:10:55.011Z,8.20
2023-05-21T04:13:21.938Z,6.57
2023-05-21T04:15:48.928Z,9.50
2023-05-21T04:18:17.202Z,8.90
2023-05-21T04:20:45.248Z,8.10
2023-05-21T04:23:12.343Z,8.52
2023-05-21T04:25:40.591Z,9.85
2023-05-21T04:28:08.091Z,7.70
2023-05-21T04:30:37.783Z,8.93
2023-05-21T04:33:04.880Z,6.63
2023-05-21T04:35:35.472Z,6.63
2023-05-21T04:38:04.192Z,6.65
2023-05-21T04:40:31.895Z,10.50
2023-05-21T04:43:00.874Z,7.38
2023-05-21T04:45:29.445Z,15.90
2023-05-21T04:48:00.549Z,6.55
2023-05-21T04:50:30.696Z,9.57
2023-05-21T04:52:59.600Z,8.00
2023-05-21T04:55:27.548Z,10.57
2023-05-21T04:57:54.568Z,6.18
2023-05-21T05:00:22.583Z,9.30
2023-05-21T05:02:49.914Z,7.28
2023-05-21T05:05:17.061Z,7.07
2023-05-21T05:07:44.020Z,11.40
2023-05-21T05:10:11.101Z,6.55
2023-05-21T05:12:38.216Z,7.13
2023-05-21T05:15:05.916Z,14.77
2023-05-21T05:17:34.417Z,8.43
2023-05-21T05:20:01.726Z,7.80
2023-05-21T05:22:29.527Z,9.55
2023-05-21T05:24:57.246Z,6.38
2023-05-21T05:27:24.239Z,7.50
2023-05-21T05:29:51.677Z,10.07
2023-05-21T05:32:18.740Z,8.77
2023-05-21T05:34:46.667Z,9.60
2023-05-21T05:37:13.633Z,6.68
2023-05-21T05:39:40.706Z,7.45
2023-05-21T05:42:08.466Z,10.23
2023-05-21T05:44:35.470Z,8.20
2023-05-21T05:47:02.490Z,6.85
2023-05-21T05:49:29.474Z,8.60
2023-05-21T05:51:56.700Z,10.20
2023-05-21T05:54:23.931Z,8.00
2023-05-21T05:56:51.052Z,7.68
2023-05-21T05:59:18.297Z,11.65
2023-05-21T06:01:48.491Z,10.73
2023-05-21T06:04:16.526Z,8.55
2023-05-21T06:06:43.667Z,8.00
2023-05-21T06:09:11.028Z,10.95
2023-05-21T06:11:38.485Z,9.55
2023-05-21T06:14:05.605Z,8.57
2023-05-21T06:16:33.968Z,6.57
2023-05-21T06:19:01.236Z,6.47
2023-05-21T06:21:28.509Z,10.07
2023-05-21T06:23:55.910Z,9.75
2023-05-21T06:26:23.868Z,10.23
2023-05-21T06:28:52.311Z,9.63
2023-05-21T06:31:22.334Z,8.90
2023-05-21T06:33:50.136Z,9.75
2023-05-21T06:36:17.351Z,7.78
2023-05-21T06:38:45.061Z,8.25
2023-05-21T06:41:12.054Z,8.45
2023-05-21T06:44:08.379Z,8.00
2023-05-21T06:46:38.554Z,10.95
2023-05-21T06:49:08.979Z,13.73
2023-05-21T06:51:36.075Z,13.13
2023-05-21T06:54:04.645Z,8.48
2023-05-21T06:56:33.239Z,8.90
2023-05-21T06:59:00.228Z,24.50
2023-05-21T07:01:27.853Z,9.63
2023-05-21T07:03:55.741Z,10.95
2023-05-21T07:06:22.703Z,9.18
2023-05-21T07:08:50.212Z,8.48
2023-05-21T07:11:17.315Z,8.48
2023-05-21T07:13:44.467Z,9.10
2023-05-21T07:16:12.023Z,11.13
2023-05-21T07:18:40.453Z,8.90
2023-05-21T07:21:07.536Z,8.80
2023-05-21T07:23:37.114Z,8.45
2023-05-21T07:26:04.267Z,10.68
2023-05-21T07:28:31.288Z,9.38
2023-05-21T07:30:58.360Z,12.27
2023-05-21T07:33:32.336Z,6.93
2023-05-21T07:35:59.410Z,8.38
2023-05-21T07:38:27.290Z,8.10
2023-05-21T07:40:54.440Z,10.45
2023-05-21T07:43:21.590Z,9.77
2023-05-21T07:45:48.621Z,7.72
2023-05-21T07:48:15.671Z,10.05
2023-05-21T07:50:52.792Z,8.93
2023-05-21T07:53:20.432Z,7.82
2023-05-21T07:55:48.168Z,9.80
2023-05-21T07:58:20.257Z,11.05
2023-05-21T08:00:48.679Z,12.18
2023-05-21T08:03:17.365Z,10.93
2023-05-21T08:05:48.682Z,11.70
2023-05-21T08:08:18.203Z,11.57
2023-05-21T08:10:47.879Z,12.60
2023-05-21T08:13:16.538Z,9.43
2023-05-21T08:15:43.995Z,7.90
2023-05-21T08:18:12.267Z,10.43
2023-05-21T08:20:39.796Z,11.63
2023-05-21T08:23:07.639Z,8.60
2023-05-21T08:25:41.081Z,9.18
2023-05-21T08:28:08.098Z,9.02
2023-05-21T08:30:35.217Z,9.10
2023-05-21T08:33:02.515Z,12.73
2023-05-21T08:35:31.713Z,7.13
2023-05-21T08:38:09.827Z,9.05
2023-05-21T08:40:43.507Z,7.40
2023-05-21T08:43:13.907Z,7.45
2023-05-21T08:45:59.174Z,9.75
2023-05-21T08:48:31.527Z,12.18
2023-05-21T08:51:01.308Z,9.52
2023-05-21T08:53:34.754Z,11.07
2023-05-21T08:56:03.887Z,10.93
2023-05-21T08:58:49.620Z,13.00
2023-05-21T09:01:21.550Z,8.73
2023-05-21T09:04:05.070Z,9.73
2023-05-21T09:06:40.826Z,5.95
2023-05-21T09:09:26.359Z,9.27
2023-05-21T09:11:53.638Z,9.80
2023-05-21T09:14:22.882Z,8.55
2023-05-21T09:17:02.303Z,8.10
2023-05-21T09:19:32.183Z,9.68
2023-05-21T09:22:04.138Z,8.48
2023-05-21T09:24:36.050Z,7.28
2023-05-21T09:27:06.853Z,10.38
2023-05-21T09:29:34.946Z,11.07
2023-05-21T09:32:07.939Z,10.20
2023-05-21T09:34:37.224Z,9.17
2023-05-21T09:37:16.528Z,9.38
2023-05-21T09:39:50.282Z,8.50
2023-05-21T09:42:21.039Z,10.60
2023-05-21T09:44:51.483Z,9.10
2023-05-21T09:47:21.739Z,11.20
2023-05-21T09:49:49.677Z,10.95
2023-05-21T09:52:28.305Z,11.25
2023-05-21T09:54:55.490Z,9.13
2023-05-21T09:57:26.449Z,12.05
2023-05-21T09:59:54.171Z,7.35
2023-05-21T10:02:23.031Z,11.63
2023-05-21T10:04:52.001Z,10.30
2023-05-21T10:07:25.848Z,9.75
2023-05-21T10:09:57.926Z,8.80
2023-05-21T10:12:25.724Z,11.45
2023-05-21T10:15:03.886Z,11.27
2023-05-21T10:17:31.510Z,10.50
2023-05-21T10:20:01.369Z,12.07
2023-05-21T10:22:28.645Z,11.13
2023-05-21T10:24:56.708Z,12.05
2023-05-21T10:27:23.874Z,14.60
2023-05-21T10:29:53.411Z,14.45
2023-05-21T10:32:22.996Z,11.93
2023-05-21T10:34:52.013Z,15.23
2023-05-21T10:37:19.275Z,11.10
2023-05-21T10:39:46.459Z,12.05
2023-05-21T10:42:31.371Z,12.70
2023-05-21T10:45:23.704Z,13.00
2023-05-21T10:48:08.076Z,12.30
2023-05-21T10:51:02.458Z,11.35
2023-05-21T10:54:09.285Z,10.93
2023-05-21T10:57:07.839Z,12.93
2023-05-21T10:59:53.444Z,14.13
2023-05-21T11:02:21.104Z,13.38
2023-05-21T11:04:58.730Z,14.18
2023-05-21T11:07:57.651Z,12.60
2023-05-21T11:10:40.501Z,14.07
2023-05-21T11:13:11.463Z,11.95
2023-05-21T11:15:58.489Z,12.70
2023-05-21T11:18:34.077Z,17.30
2023-05-21T11:21:11.093Z,11.65
2023-05-21T11:23:56.205Z,15.98
2023-05-21T11:26:44.139Z,14.38
2023-05-21T11:29:11.939Z,17.27
2023-05-21T11:31:39.287Z,13.38
2023-05-21T11:34:18.719Z,12.52
2023-05-21T11:36:50.179Z,12.93
2023-05-21T11:39:25.090Z,15.45
2023-05-21T11:42:03.243Z,11.75
2023-05-21T11:44:46.069Z,14.55
2023-05-21T11:47:15.397Z,15.57
2023-05-21T11:49:43.098Z,11.07
2023-05-21T11:52:11.497Z,12.73
2023-05-21T11:54:50.480Z,11.60
2023-05-21T11:57:19.600Z,11.80
2023-05-21T11:59:47.774Z,11.10
2023-05-21T12:02:19.178Z,12.55
2023-05-21T12:04:50.908Z,12.50
2023-05-21T12:07:20.811Z,13.40
2023-05-21T12:09:50.959Z,16.55
2023-05-21T12:12:24.311Z,13.77
2023-05-21T12:14:54.054Z,14.30
2023-05-21T12:17:23.696Z,13.40
2023-05-21T12:19:55.578Z,18.27
2023-05-21T12:22:24.680Z,15.10
2023-05-21T12:24:53.858Z,12.15
2023-05-21T12:27:22.394Z,11.70
2023-05-21T12:29:51.896Z,14.13
2023-05-21T12:32:21.230Z,11.15
2023-05-21T12:34:52.563Z,10.48
2023-05-21T12:37:28.127Z,9.30
2023-05-21T12:39:58.021Z,15.15
2023-05-21T12:42:35.559Z,10.82
2023-05-21T12:45:07.982Z,14.00
2023-05-21T12:47:35.419Z,14.02
2023-05-21T12:50:04.841Z,13.10
2023-05-21T12:52:31.846Z,13.48
2023-05-21T12:54:59.524Z,12.57
2023-05-21T12:57:38.498Z,12.00
2023-05-21T13:00:07.315Z,10.70
2023-05-21T13:02:39.011Z,12.98
2023-05-21T13:05:09.025Z,12.45
2023-05-21T13:07:39.799Z,15.55
2023-05-21T13:10:07.941Z,10.63
2023-05-21T13:12:35.494Z,11.90
2023-05-21T13:15:04.545Z,16.25
2023-05-21T13:17:31.686Z,14.68
2023-05-21T13:20:14.266Z,14.05
2023-05-21T13:22:49.531Z,15.05
2023-05-21T13:25:24.477Z,15.10
2023-05-21T13:27:53.328Z,13.02
2023-05-21T13:30:21.996Z,16.20
2023-05-21T13:32:49.323Z,12.38
2023-05-21T13:35:16.908Z,13.27
2023-05-21T13:37:45.173Z,13.27
2023-05-21T13:40:15.195Z,15.10
2023-05-21T13:42:48.334Z,11.60
2023-05-21T13:45:20.927Z,19.58
2023-05-21T13:47:48.553Z,12.05
2023-05-21T13:50:16.765Z,12.52
2023-05-21T13:52:43.853Z,15.60
2023-05-21T13:55:10.998Z,13.07
2023-05-21T13:57:38.151Z,16.08
2023-05-21T14:00:06.109Z,14.38
2023-05-21T14:02:34.960Z,15.85
2023-05-21T14:05:02.155Z,13.43
2023-05-21T14:07:29.118Z,13.55
2023-05-21T14:09:56.107Z,14.52
2023-05-21T14:12:23.107Z,13.52
2023-05-21T14:14:50.121Z,16.92
2023-05-21T14:17:17.080Z,13.60
2023-05-21T14:19:44.104Z,17.10
2023-05-21T14:22:11.273Z,17.70
2023-05-21T14:24:38.263Z,15.98
2023-05-21T14:27:05.591Z,16.75
2023-05-21T14:29:33.239Z,16.65
2023-05-21T14:32:00.428Z,15.98
2023-05-21T14:34:27.439Z,14.65
2023-05-21T14:36:54.425Z,14.02
2023-05-21T14:39:21.356Z,20.38
2023-05-21T14:41:48.410Z,11.48
2023-05-21T14:44:15.451Z,15.77
2023-05-21T14:46:42.475Z,13.52
2023-05-21T14:49:09.447Z,15.88
2023-05-21T14:51:36.415Z,15.68
2023-05-21T14:54:03.439Z,18.77
2023-05-21T14:56:30.378Z,14.88
2023-05-21T14:58:57.402Z,15.32
2023-05-21T15:01:24.396Z,14.95
2023-05-21T15:03:51.636Z,17.98
2023-05-21T15:06:18.814Z,12.68
2023-05-21T15:08:45.879Z,12.77
2023-05-21T15:11:12.882Z,14.25
2023-05-21T15:13:39.840Z,15.32
2023-05-21T15:16:06.973Z,13.90
2023-05-21T15:18:34.020Z,12.82
2023-05-21T15:21:01.177Z,15.85
2023-05-21T15:23:28.366Z,16.50
2023-05-21T15:25:55.955Z,15.00
2023-05-21T15:28:23.095Z,17.02
2023-05-21T15:30:50.278Z,14.35
2023-05-21T15:33:17.526Z,14.25
2023-05-21T15:35:44.884Z,15.73
2023-05-21T15:38:12.164Z,12.90
2023-05-21T15:40:41.988Z,12.85
2023-05-21T15:43:08.989Z,13.00
2023-05-21T15:45:36.164Z,13.57
2023-05-21T15:48:03.285Z,12.13
2023-05-21T15:50:30.291Z,12.80
2023-05-21T15:52:57.264Z,12.88
2023-05-21T15:55:24.188Z,13.30
2023-05-21T15:57:51.237Z,10.30
2023-05-21T16:00:18.522Z,15.63
2023-05-21T16:02:45.656Z,14.73
2023-05-21T16:05:12.632Z,14.00
2023-05-21T16:07:39.592Z,13.52
2023-05-21T16:10:09.754Z,11.55
2023-05-21T16:12:36.866Z,12.90
2023-05-21T16:15:04.876Z,11.82
2023-05-21T16:17:31.871Z,11.32
2023-05-21T16:19:58.909Z,14.07
2023-05-21T16:22:26.268Z,16.73
2023-05-21T16:24:55.736Z,15.23
2023-05-21T16:27:22.677Z,13.98
2023-05-21T16:29:49.600Z,12.40
2023-05-21T16:32:16.700Z,15.00
2023-05-21T16:34:43.672Z,13.77
2023-05-21T16:37:11.294Z,15.18
2023-05-21T16:39:38.498Z,13.15
2023-05-21T16:42:05.702Z,15.98
2023-05-21T16:44:32.661Z,12.40
2023-05-21T16:47:00.472Z,14.30
2023-05-21T16:49:28.034Z,13.98
2023-05-21T16:51:55.281Z,17.10
2023-05-21T16:54:22.355Z,20.60
2023-05-21T16:56:49.331Z,15.85
2023-05-21T16:59:16.454Z,12.73
2023-05-21T17:01:43.543Z,13.07
2023-05-21T17:04:11.044Z,13.70
2023-05-21T17:06:37.967Z,18.95
2023-05-21T17:09:04.960Z,13.48
2023-05-21T17:11:32.125Z,17.10
2023-05-21T17:13:59.049Z,15.32
2023-05-21T17:16:26.192Z,14.70
2023-05-21T17:18:53.277Z,13.63
2023-05-21T17:21:20.468Z,12.30
2023-05-21T17:23:47.482Z,13.35
2023-05-21T17:26:15.578Z,18.75
2023-05-21T17:28:43.140Z,18.08
2023-05-21T17:31:10.249Z,14.02
2023-05-21T17:33:37.791Z,16.55
2023-05-21T17:36:05.061Z,16.13
2023-05-21T17:38:32.061Z,15.57
2023-05-21T17:40:59.424Z,15.85
2023-05-21T17:43:31.820Z,16.13
2023-05-21T17:45:58.827Z,15.25
2023-05-21T17:48:26.204Z,15.10
2023-05-21T17:50:53.160Z,14.00
2023-05-21T17:53:20.288Z,12.95
2023-05-21T17:55:47.303Z,17.42
2023-05-21T17:58:14.349Z,15.25
2023-05-21T18:00:41.331Z,12.55
2023-05-21T18:03:08.347Z,16.45
2023-05-21T18:05:35.573Z,15.88
2023-05-21T18:08:02.909Z,16.25
2023-05-21T18:10:29.996Z,18.42
2023-05-21T18:12:57.033Z,17.17
2023-05-21T18:15:24.075Z,15.32
2023-05-21T18:17:51.143Z,17.02
2023-05-21T18:20:20.375Z,18.55
2023-05-21T18:22:47.316Z,13.82
2023-05-21T18:25:14.364Z,18.45
2023-05-21T18:27:41.288Z,15.25
2023-05-21T18:30:09.134Z,13.02
2023-05-21T18:32:39.141Z,13.00
2023-05-21T18:35:14.369Z,12.75
2023-05-21T18:37:44.449Z,12.98
2023-05-21T18:40:13.425Z,14.15
2023-05-21T18:42:41.281Z,13.20
2023-05-21T18:45:12.972Z,11.88
2023-05-21T18:47:40.581Z,27.73
2023-05-21T18:50:15.795Z,19.90
2023-05-21T18:52:42.841Z,14.93
2023-05-21T18:55:10.339Z,13.85
2023-05-21T18:57:38.154Z,18.33
2023-05-21T19:00:09.790Z,12.88
2023-05-21T19:02:37.382Z,13.40
2023-05-21T19:05:05.084Z,24.05
2023-05-21T19:07:32.225Z,13.00
2023-05-21T19:10:02.226Z,18.70
2023-05-21T19:12:31.393Z,15.15
2023-05-21T19:14:58.797Z,17.67
2023-05-21T19:17:26.090Z,15.27
2023-05-21T19:19:56.202Z,14.10
2023-05-21T19:22:27.762Z,11.52
2023-05-21T19:24:55.244Z,12.05
2023-05-21T19:27:22.277Z,11.25
2023-05-21T19:29:49.270Z,11.15
2023-05-21T19:32:16.467Z,11.35
2023-05-21T19:34:43.609Z,13.32
2023-05-21T19:37:10.661Z,12.63
2023-05-21T19:39:42.395Z,15.20
2023-05-21T19:42:10.340Z,17.23
2023-05-21T19:44:42.973Z,15.27
2023-05-21T19:47:09.931Z,11.55
2023-05-21T19:49:36.949Z,14.23
2023-05-21T19:52:05.716Z,12.63
2023-05-21T19:54:32.723Z,13.25
2023-05-21T19:56:59.727Z,11.85
2023-05-21T19:59:26.911Z,15.50
2023-05-21T20:01:53.874Z,13.07
2023-05-21T20:04:20.993Z,14.00
2023-05-21T20:06:48.113Z,11.20
2023-05-21T20:09:16.351Z,15.25
2023-05-21T20:11:43.492Z,12.23
2023-05-21T20:14:10.696Z,10.35
2023-05-21T20:16:37.822Z,14.48
2023-05-21T20:19:05.831Z,17.35
2023-05-21T20:21:32.905Z,11.98
2023-05-21T20:24:00.053Z,15.70
2023-05-21T20:26:27.228Z,12.80
2023-05-21T20:28:54.216Z,13.65
2023-05-21T20:31:22.065Z,13.88
2023-05-21T20:33:50.604Z,15.15
2023-05-21T20:36:17.858Z,12.52
2023-05-21T20:38:45.709Z,20.77
2023-05-21T20:41:13.292Z,21.85
2023-05-21T20:43:40.443Z,18.85
2023-05-21T20:46:07.762Z,20.40
2023-05-21T20:48:35.384Z,17.73
2023-05-21T20:51:04.387Z,17.80
2023-05-21T20:53:31.509Z,16.25
2023-05-21T20:55:58.451Z,13.48
2023-05-21T20:58:25.485Z,15.18
2023-05-21T21:00:52.726Z,14.35
2023-05-21T21:03:21.585Z,14.73
2023-05-21T21:05:48.916Z,19.17
2023-05-21T21:08:16.217Z,16.50
2023-05-21T21:10:46.692Z,18.13
2023-05-21T21:13:14.614Z,18.20
2023-05-21T21:15:43.916Z,20.95
2023-05-21T21:18:12.607Z,17.63
2023-05-21T21:20:41.336Z,16.42
2023-05-21T21:23:08.953Z,17.48
2023-05-21T21:25:36.425Z,16.23
2023-05-21T21:28:03.619Z,23.08
2023-05-21T21:30:30.839Z,20.30
2023-05-21T21:32:58.146Z,17.30
2023-05-21T21:35:25.151Z,18.63
2023-05-21T21:37:52.090Z,18.30
2023-05-21T21:40:19.028Z,16.45
2023-05-21T21:42:46.391Z,17.13
2023-05-21T21:45:13.382Z,16.05
2023-05-21T21:47:40.458Z,19.98
2023-05-21T21:50:08.182Z,16.85
2023-05-21T21:52:39.929Z,19.08
2023-05-21T21:55:11.142Z,20.63
2023-05-21T21:57:39.431Z,16.75
2023-05-21T22:00:15.600Z,16.45
2023-05-21T22:02:43.777Z,15.98
2023-05-21T22:05:15.584Z,22.23
2023-05-21T22:07:46.525Z,18.17
2023-05-21T22:10:15.342Z,20.98
2023-05-21T22:12:43.709Z,16.65
2023-05-21T22:15:19.669Z,23.58
2023-05-21T22:17:48.664Z,24.10
2023-05-21T22:20:17.674Z,22.38
2023-05-21T22:22:46.096Z,22.25
2023-05-21T22:25:13.193Z,24.70
2023-05-21T22:27:40.504Z,24.42
2023-05-21T22:30:09.407Z,22.77
2023-05-21T22:32:37.074Z,23.20
2023-05-21T22:35:04.489Z,25.33
2023-05-21T22:37:31.649Z,27.17
2023-05-21T22:39:58.667Z,30.98
2023-05-21T22:42:25.791Z,23.45
2023-05-21T22:44:52.820Z,30.65
2023-05-21T22:47:23.807Z,21.60
2023-05-21T22:49:53.474Z,19.33
2023-05-21T22:52:24.218Z,18.98
2023-05-21T22:54:52.691Z,21.70
2023-05-21T22:57:20.267Z,22.38
2023-05-21T22:59:47.273Z,25.98
2023-05-21T23:02:15.353Z,31.65
2023-05-21T23:04:44.310Z,22.73
2023-05-21T23:07:12.382Z,27.40
2023-05-21T23:09:39.644Z,26.75
2023-05-21T23:12:07.381Z,21.00
2023-05-21T23:14:34.335Z,21.33
2023-05-21T23:17:04.523Z,23.67
2023-05-21T23:19:32.835Z,22.83
2023-05-21T23:22:00.443Z,23.25
2023-05-21T23:24:29.350Z,18.52
2023-05-21T23:27:02.910Z,19.73
2023-05-21T23:29:30.777Z,23.98
2023-05-21T23:31:58.056Z,25.52
2023-05-21T23:34:25.554Z,21.65
2023-05-21T23:36:52.900Z,23.67
2023-05-21T23:39:19.984Z,20.60
2023-05-21T23:41:47.036Z,25.10
2023-05-21T23:44:15.346Z,24.55
2023-05-21T23:46:45.154Z,28.20
2023-05-21T23:49:12.164Z,23.08
2023-05-21T23:51:39.919Z,25.02
2023-05-21T23:54:07.971Z,26.02
2023-05-21T23:56:35.128Z,25.60
2023-05-21T23:59:02.092Z,19.00
